Time;durP1;ratioP1;P1;durP2;ratioP2;P2;SDS_P1;SDS_P2;PMS_P1;PMS_P2;Temp;Humidity;BMP_temperature;BMP_pressure;BME280_temperature;BME280_humidity;BME280_pressure;Samples;Min_cycle;Max_cycle;Signal;HPM_P1;HPM_P2
2022/09/07 02:48:25;;;;;;;4.20;0.90;;;19.10;99.90;;;;;;5166913;23;88105;-78
2022/09/07 02:51:02;;;;;;;6.63;1.35;;;19.10;99.90;;;;;;4911636;28;86704;-77
2022/09/07 02:53:52;;;;;;;4.40;1.30;;;18.90;99.90;;;;;;4899290;28;86884;-79
2022/09/07 02:56:33;;;;;;;5.20;1.30;;;18.80;99.90;;;;;;4897560;28;87798;-77
2022/09/07 02:59:20;;;;;;;5.75;1.25;;;18.80;99.90;;;;;;4889562;28;85540;-78
2022/09/07 03:02:03;;;;;;;4.72;1.27;;;18.80;99.90;;;;;;4891531;28;88723;-76
2022/09/07 03:04:45;;;;;;;3.75;0.82;;;18.80;99.90;;;;;;4904746;28;86312;-76
2022/09/07 03:07:29;;;;;;;6.30;1.02;;;18.80;99.90;;;;;;4916252;28;87134;-77
2022/09/07 03:09:56;;;;;;;4.93;1.13;;;18.80;99.90;;;;;;4910928;28;86187;-75
2022/09/07 03:12:22;;;;;;;4.28;0.90;;;18.80;99.90;;;;;;4900438;28;86326;-79
2022/09/07 03:14:48;;;;;;;3.42;0.68;;;18.90;99.90;;;;;;4898185;28;86969;-78
2022/09/07 03:17:14;;;;;;;5.55;0.95;;;18.90;99.90;;;;;;4903618;28;86602;-77
2022/09/07 03:19:40;;;;;;;3.47;1.17;;;19.00;99.90;;;;;;4904919;28;86267;-78
2022/09/07 03:22:06;;;;;;;4.90;1.27;;;19.00;99.90;;;;;;4893706;28;88792;-77
2022/09/07 03:24:32;;;;;;;4.78;1.25;;;18.80;99.90;;;;;;4885257;28;86400;-75
2022/09/07 03:26:58;;;;;;;7.88;1.40;;;18.40;99.90;;;;;;4897105;28;87217;-77
2022/09/07 03:29:24;;;;;;;3.50;1.45;;;18.20;99.90;;;;;;4899646;28;86920;-76
2022/09/07 03:31:50;;;;;;;4.47;1.30;;;18.10;99.90;;;;;;4903114;28;87578;-75
2022/09/07 03:34:16;;;;;;;8.43;1.13;;;18.00;99.90;;;;;;4903128;28;87842;-76
2022/09/07 03:36:42;;;;;;;4.72;1.50;;;18.10;99.90;;;;;;4903639;28;86916;-76
2022/09/07 03:39:10;;;;;;;4.93;0.95;;;18.10;99.90;;;;;;4904523;28;86799;-78
2022/09/07 03:41:36;;;;;;;4.07;1.27;;;18.00;99.90;;;;;;4890347;28;87236;-76
2022/09/07 03:44:04;;;;;;;4.32;1.33;;;18.10;99.90;;;;;;4901794;28;87078;-80
2022/09/07 03:46:30;;;;;;;2.85;1.10;;;18.20;99.90;;;;;;4898589;28;86360;-76
2022/09/07 03:48:56;;;;;;;3.67;1.13;;;18.20;99.90;;;;;;4892781;28;85575;-78
2022/09/07 03:51:21;;;;;;;4.72;1.00;;;18.30;99.90;;;;;;4876717;28;87263;-77
2022/09/07 03:53:47;;;;;;;2.85;1.00;;;18.30;99.90;;;;;;4884853;28;86901;-77
2022/09/07 03:56:17;;;;;;;8.60;0.90;;;18.30;99.90;;;;;;4886069;28;87665;-77
2022/09/07 03:58:44;;;;;;;2.78;0.93;;;18.30;99.90;;;;;;4884508;28;87330;-76
2022/09/07 04:01:14;;;;;;;4.18;1.08;;;18.30;99.90;;;;;;4881733;28;87252;-80
2022/09/07 04:03:41;;;;;;;3.47;1.10;;;18.30;99.90;;;;;;4877754;28;88412;-78
2022/09/07 04:06:06;;;;;;;2.75;0.95;;;18.30;99.90;;;;;;4883895;28;86226;-78
2022/09/07 04:08:35;;;;;;;4.25;1.23;;;18.30;99.90;;;;;;4895313;28;87052;-79
2022/09/07 04:11:03;;;;;;;3.00;0.90;;;18.20;99.90;;;;;;4883938;28;86743;-77
2022/09/07 04:13:30;;;;;;;8.15;1.95;;;18.30;99.90;;;;;;4892441;28;86967;-77
2022/09/07 04:15:56;;;;;;;3.75;1.08;;;18.30;99.90;;;;;;4899330;28;86883;-79
2022/09/07 04:18:22;;;;;;;6.82;1.33;;;18.20;99.90;;;;;;4887928;28;87121;-77
2022/09/07 04:20:49;;;;;;;3.63;1.10;;;18.20;99.90;;;;;;4887611;28;87498;-77
2022/09/07 04:23:16;;;;;;;6.22;1.25;;;18.40;99.90;;;;;;4888420;28;87302;-76
2022/09/07 04:25:50;;;;;;;4.15;1.48;;;18.40;99.90;;;;;;4885199;28;86290;-77
2022/09/07 04:28:16;;;;;;;5.60;1.33;;;18.30;99.90;;;;;;4877096;28;86715;-78
2022/09/07 04:30:43;;;;;;;7.72;1.35;;;18.40;99.90;;;;;;4885947;28;86788;-76
2022/09/07 04:33:09;;;;;;;5.82;1.40;;;18.40;99.90;;;;;;4877707;28;88480;-82
2022/09/07 04:35:36;;;;;;;7.38;1.60;;;18.40;99.90;;;;;;4880755;28;86991;-78
2022/09/07 04:38:02;;;;;;;5.05;1.70;;;18.30;99.90;;;;;;4882702;28;85700;-77
2022/09/07 04:40:28;;;;;;;7.18;1.80;;;18.00;99.90;;;;;;4879816;28;86362;-77
2022/09/07 04:42:53;;;;;;;4.82;1.90;;;18.00;99.90;;;;;;4877495;28;86898;-77
2022/09/07 04:45:19;;;;;;;3.80;1.40;;;18.00;99.90;;;;;;4873042;28;87586;-76
2022/09/07 04:47:48;;;;;;;3.95;1.90;;;17.90;99.90;;;;;;4878869;28;87252;-77
2022/09/07 04:50:15;;;;;;;6.47;2.47;;;17.90;99.90;;;;;;4880074;28;88718;-78
2022/09/07 04:52:42;;;;;;;5.78;1.90;;;17.70;99.90;;;;;;4876790;28;86877;-76
2022/09/07 04:55:08;;;;;;;5.50;1.80;;;17.70;99.90;;;;;;4891613;28;86246;-80
2022/09/07 04:57:34;;;;;;;13.23;2.45;;;17.70;99.90;;;;;;4883017;28;87078;-78
2022/09/07 05:00:00;;;;;;;6.40;1.88;;;17.60;99.90;;;;;;4879949;28;87150;-78
2022/09/07 05:02:26;;;;;;;8.73;2.63;;;17.60;99.90;;;;;;4878137;28;86937;-77
2022/09/07 05:04:51;;;;;;;5.28;1.75;;;17.80;99.90;;;;;;4880747;28;86881;-79
2022/09/07 05:07:17;;;;;;;6.97;2.05;;;18.00;99.90;;;;;;4883964;28;86360;-77
2022/09/07 05:09:43;;;;;;;5.05;2.25;;;17.80;99.90;;;;;;4875422;28;88696;-76
2022/09/07 05:12:09;;;;;;;3.55;1.50;;;17.80;99.90;;;;;;4878034;28;87948;-77
2022/09/07 05:14:34;;;;;;;6.00;1.40;;;17.90;99.90;;;;;;4881528;28;86779;-76
2022/09/07 05:17:00;;;;;;;5.03;1.55;;;18.00;99.90;;;;;;4880240;28;86863;-76
2022/09/07 05:19:26;;;;;;;2.85;1.02;;;18.00;99.90;;;;;;4880902;28;87113;-78
2022/09/07 05:21:52;;;;;;;2.53;0.70;;;18.10;99.90;;;;;;4881385;28;87035;-77
2022/09/07 05:24:18;;;;;;;4.93;0.77;;;18.10;99.90;;;;;;4883044;28;86926;-76
2022/09/07 05:26:44;;;;;;;2.38;0.50;;;18.20;99.90;;;;;;4886705;28;85717;-75
2022/09/07 05:29:10;;;;;;;5.53;1.00;;;18.30;99.90;;;;;;4886872;28;87265;-76
2022/09/07 05:31:36;;;;;;;6.85;1.00;;;18.40;99.90;;;;;;4882569;28;87589;-77
2022/09/07 05:34:01;;;;;;;6.57;1.02;;;18.40;99.90;;;;;;4889655;28;87683;-78
2022/09/07 05:36:28;;;;;;;5.10;1.33;;;18.40;99.90;;;;;;4882723;28;86956;-78
2022/09/07 05:38:55;;;;;;;3.95;0.80;;;18.40;99.90;;;;;;4881908;28;87324;-79
2022/09/07 05:41:23;;;;;;;4.95;1.80;;;18.30;99.90;;;;;;4886674;28;86840;-76
2022/09/07 05:43:50;;;;;;;3.95;0.70;;;18.30;99.90;;;;;;4881305;28;86785;-76
2022/09/07 05:46:17;;;;;;;3.13;0.80;;;18.40;99.90;;;;;;4884124;28;86675;-76
2022/09/07 05:48:43;;;;;;;2.83;0.60;;;18.30;99.90;;;;;;4883049;28;87259;-79
2022/09/07 05:51:10;;;;;;;2.75;1.00;;;18.20;99.90;;;;;;4881831;28;86642;-77
2022/09/07 05:53:37;;;;;;;6.53;0.50;;;18.30;99.90;;;;;;4884410;28;86371;-76
2022/09/07 05:56:04;;;;;;;5.22;1.17;;;18.40;99.90;;;;;;4881719;28;86510;-76
2022/09/07 05:58:31;;;;;;;4.78;0.63;;;18.60;99.90;;;;;;4880171;28;88105;-77
2022/09/07 06:01:04;;;;;;;5.90;1.20;;;18.60;99.90;;;;;;4879246;28;88090;-77
2022/09/07 06:03:30;;;;;;;7.53;1.35;;;18.50;99.90;;;;;;4877662;28;86857;-77
2022/09/07 06:06:06;;;;;;;4.90;1.70;;;18.30;99.90;;;;;;4876855;28;86859;-77
2022/09/07 06:08:33;;;;;;;7.90;1.45;;;18.00;99.90;;;;;;4877465;28;87440;-77
2022/09/07 06:11:05;;;;;;;7.53;1.60;;;18.10;99.90;;;;;;4877628;28;86328;-76
2022/09/07 06:13:30;;;;;;;8.95;1.33;;;18.00;99.90;;;;;;4883782;28;86359;-76
2022/09/07 06:16:01;;;;;;;7.28;1.75;;;18.10;99.90;;;;;;4886288;28;85609;-76
2022/09/07 06:18:38;;;;;;;6.25;1.60;;;18.10;99.90;;;;;;4882925;28;87239;-75
2022/09/07 06:21:05;;;;;;;5.88;1.60;;;18.20;99.90;;;;;;4892437;28;86910;-75
2022/09/07 06:23:32;;;;;;;5.75;1.73;;;18.10;99.90;;;;;;4886611;28;87293;-75
2022/09/07 06:25:58;;;;;;;7.90;2.05;;;18.20;99.90;;;;;;4887485;28;86610;-75
2022/09/07 06:28:44;;;;;;;6.28;1.40;;;18.10;99.90;;;;;;4887348;28;87228;-75
2022/09/07 06:31:12;;;;;;;4.20;1.67;;;18.10;99.90;;;;;;4882564;28;87067;-76
2022/09/07 06:33:39;;;;;;;10.10;2.28;;;18.00;99.90;;;;;;4886715;28;86266;-76
2022/09/07 06:36:09;;;;;;;10.48;2.30;;;18.00;99.90;;;;;;4884022;28;86302;-76
2022/09/07 06:38:36;;;;;;;4.55;1.15;;;18.10;99.90;;;;;;4886563;28;86727;-75
2022/09/07 06:41:10;;;;;;;3.67;1.20;;;18.10;99.90;;;;;;4885510;28;86081;-77
2022/09/07 06:43:36;;;;;;;2.58;1.08;;;18.30;99.90;;;;;;4882800;28;86256;-76
2022/09/07 06:46:03;;;;;;;3.50;0.90;;;18.50;99.90;;;;;;4892692;28;86996;-76
2022/09/07 06:48:29;;;;;;;4.22;0.77;;;18.60;99.90;;;;;;4884564;28;87778;-78
2022/09/07 06:51:02;;;;;;;3.58;0.77;;;18.80;99.90;;;;;;4880879;28;87171;-78
2022/09/07 06:53:34;;;;;;;3.50;0.50;;;18.90;99.90;;;;;;4886778;28;86670;-75
2022/09/07 06:56:00;;;;;;;2.45;0.70;;;18.90;99.90;;;;;;4875551;28;86742;-78
2022/09/07 06:58:27;;;;;;;3.88;0.73;;;19.00;99.90;;;;;;4871080;28;87232;-75
2022/09/07 07:00:54;;;;;;;3.22;0.70;;;19.10;99.90;;;;;;4881012;28;86893;-75
2022/09/07 07:03:20;;;;;;;3.55;0.88;;;19.10;99.90;;;;;;4873890;28;86681;-81
2022/09/07 07:05:51;;;;;;;3.03;0.77;;;19.20;99.90;;;;;;4880625;28;85825;-76
2022/09/07 07:08:17;;;;;;;2.65;0.65;;;19.30;99.90;;;;;;4879739;28;86543;-75
2022/09/07 07:10:43;;;;;;;4.22;1.20;;;19.40;99.90;;;;;;4881083;28;87248;-77
2022/09/07 07:13:09;;;;;;;2.53;0.93;;;19.50;99.90;;;;;;4878156;28;87460;-77
2022/09/07 07:15:35;;;;;;;4.05;1.00;;;19.60;99.90;;;;;;4881386;28;86308;-79
2022/09/07 07:18:01;;;;;;;1.98;0.50;;;19.60;99.90;;;;;;4878459;28;86610;-79
2022/09/07 07:20:27;;;;;;;3.30;0.82;;;19.60;99.90;;;;;;4881961;28;87738;-77
2022/09/07 07:22:53;;;;;;;3.05;0.77;;;19.80;99.90;;;;;;4880046;28;86670;-80
2022/09/07 07:25:20;;;;;;;4.40;0.88;;;19.90;99.90;;;;;;4876788;28;87089;-77
2022/09/07 07:27:45;;;;;;;1.73;0.50;;;19.90;99.90;;;;;;4876004;28;87351;-78
2022/09/07 07:30:16;;;;;;;3.83;1.05;;;19.90;99.90;;;;;;4882743;28;86871;-76
2022/09/07 07:32:43;;;;;;;3.92;1.13;;;19.90;99.90;;;;;;4879384;28;86938;-77
2022/09/07 07:35:09;;;;;;;4.63;0.88;;;20.00;99.90;;;;;;4882593;28;86256;-77
2022/09/07 07:37:36;;;;;;;3.25;1.00;;;20.10;99.90;;;;;;4874261;28;89817;-77
2022/09/07 07:40:07;;;;;;;2.97;1.20;;;20.20;99.90;;;;;;4875624;28;87375;-76
2022/09/07 07:42:34;;;;;;;3.42;1.00;;;20.20;99.90;;;;;;4878868;28;86840;-77
2022/09/07 07:45:01;;;;;;;3.50;1.33;;;20.10;99.90;;;;;;4871089;28;87114;-77
2022/09/07 07:47:28;;;;;;;5.43;1.38;;;20.00;99.90;;;;;;4867051;28;88036;-78
2022/09/07 07:49:53;;;;;;;4.28;1.40;;;19.90;99.90;;;;;;4873000;28;86719;-79
2022/09/07 07:52:19;;;;;;;4.88;1.40;;;19.90;99.90;;;;;;4878206;28;86605;-77
2022/09/07 07:54:45;;;;;;;3.13;0.85;;;19.90;99.90;;;;;;4879598;28;86037;-77
2022/09/07 07:57:11;;;;;;;4.78;1.17;;;20.00;99.90;;;;;;4879551;28;87669;-78
2022/09/07 07:59:38;;;;;;;4.18;1.48;;;20.00;99.90;;;;;;4880254;28;86923;-78
2022/09/07 08:02:07;;;;;;;4.10;1.38;;;20.10;99.90;;;;;;4879507;28;87637;-78
2022/09/07 08:04:34;;;;;;;5.65;1.52;;;20.30;99.90;;;;;;4884715;28;86803;-76
2022/09/07 08:07:00;;;;;;;5.93;1.60;;;20.50;99.90;;;;;;4895307;28;86752;-77
2022/09/07 08:09:26;;;;;;;4.95;1.75;;;20.60;99.90;;;;;;4878680;28;86914;-79
2022/09/07 08:11:51;;;;;;;4.45;1.17;;;20.60;99.90;;;;;;4884806;28;86263;-78
2022/09/07 08:14:17;;;;;;;2.78;0.90;;;21.00;99.90;;;;;;4883131;28;86993;-78
2022/09/07 08:16:46;;;;;;;7.28;2.10;;;21.40;99.90;;;;;;4883627;28;86634;-76
2022/09/07 08:19:12;;;;;;;2.58;0.82;;;21.80;99.90;;;;;;4883128;28;86910;-79
2022/09/07 08:21:38;;;;;;;4.47;1.55;;;22.20;99.90;;;;;;4878532;28;86640;-80
2022/09/07 08:24:03;;;;;;;6.82;1.90;;;22.50;96.90;;;;;;4874085;28;86337;-78
2022/09/07 08:26:29;;;;;;;2.28;0.85;;;22.60;98.00;;;;;;4877075;28;88191;-79
2022/09/07 08:28:55;;;;;;;6.45;1.40;;;23.00;96.60;;;;;;4877605;28;88898;-79
2022/09/07 08:31:21;;;;;;;4.68;1.60;;;23.60;95.20;;;;;;4881404;28;86327;-76
2022/09/07 08:33:47;;;;;;;9.50;1.60;;;24.50;91.20;;;;;;4876631;28;86345;-79
2022/09/07 08:36:20;;;;;;;7.78;1.48;;;24.00;91.20;;;;;;4879342;28;87272;-79
2022/09/07 08:38:46;;;;;;;3.63;1.45;;;23.90;91.70;;;;;;4879123;28;86992;-80
2022/09/07 08:41:27;;;;;;;5.50;1.27;;;24.30;90.90;;;;;;4876584;28;86276;-78
2022/09/07 08:43:58;;;;;;;6.32;1.58;;;24.80;87.50;;;;;;4880189;28;85958;-78
2022/09/07 08:46:53;;;;;;;5.57;1.80;;;24.30;87.70;;;;;;4878979;28;87656;-76
2022/09/07 08:49:24;;;;;;;5.32;1.92;;;23.90;90.70;;;;;;4877913;28;87042;-79
2022/09/07 08:51:54;;;;;;;5.28;2.00;;;24.10;90.30;;;;;;4881852;28;87651;-78
2022/09/07 08:54:19;;;;;;;6.03;2.15;;;23.80;90.60;;;;;;4880161;28;87045;-79
2022/09/07 08:56:49;;;;;;;5.18;1.92;;;23.80;90.70;;;;;;4878937;28;86699;-78
2022/09/07 08:59:27;;;;;;;6.72;2.08;;;24.20;89.90;;;;;;4878061;28;87227;-78
2022/09/07 09:01:53;;;;;;;8.32;2.22;;;24.30;89.60;;;;;;4881180;28;86734;-77
2022/09/07 09:04:27;;;;;;;5.63;1.98;;;24.10;89.20;;;;;;4884174;28;86791;-79
2022/09/07 09:07:10;;;;;;;9.90;1.88;;;24.30;87.60;;;;;;4876182;28;88312;-80
2022/09/07 09:10:14;;;;;;;7.28;1.33;;;24.30;86.40;;;;;;4881716;28;87420;-80
2022/09/07 09:13:31;;;;;;;4.45;1.17;;;24.40;87.30;;;;;;4843242;29;86783;-77
2022/09/07 09:16:33;;;;;;;4.90;2.08;;;24.90;84.80;;;;;;4834239;29;87064;-80
2022/09/07 09:19:36;;;;;;;6.10;2.20;;;30.00;77.80;;;;;;4846996;29;87592;-78
2022/09/07 09:22:25;;;;;;;5.28;2.45;;;35.90;59.60;;;;;;4867162;28;87555;-80
2022/09/07 09:25:14;;;;;;;4.72;1.90;;;39.00;47.80;;;;;;4881525;28;86993;-76
2022/09/07 09:27:40;;;;;;;7.18;2.90;;;37.80;47.70;;;;;;4883111;28;86780;-76
2022/09/07 09:30:16;;;;;;;3.55;2.78;;;35.70;51.60;;;;;;4882107;28;86678;-77
2022/09/07 09:32:44;;;;;;;3.55;3.08;;;36.50;51.00;;;;;;4881344;28;86912;-77
2022/09/07 09:35:25;;;;;;;9.65;2.55;;;37.80;47.80;;;;;;4877884;28;86370;-76
2022/09/07 09:37:50;;;;;;;3.80;1.58;;;35.90;48.30;;;;;;4879565;28;85634;-77
2022/09/07 09:40:18;;;;;;;6.68;2.63;;;33.80;51.90;;;;;;4882547;28;87112;-75
2022/09/07 09:42:44;;;;;;;5.45;2.10;;;32.80;53.40;;;;;;4887101;28;86358;-76
2022/09/07 09:45:20;;;;;;;5.65;2.38;;;32.50;54.90;;;;;;4881482;28;87233;-78
2022/09/07 09:47:53;;;;;;;3.72;2.53;;;34.30;52.60;;;;;;4881455;28;86791;-79
2022/09/07 09:50:22;;;;;;;5.90;3.13;;;36.30;50.20;;;;;;4879626;28;87180;-77
2022/09/07 09:52:49;;;;;;;6.45;4.47;;;39.00;45.10;;;;;;4879224;28;86559;-76
2022/09/07 09:55:30;;;;;;;5.18;3.33;;;37.50;46.00;;;;;;4878778;28;86768;-76
2022/09/07 09:58:01;;;;;;;5.78;3.00;;;35.60;49.10;;;;;;4879248;28;86635;-76
2022/09/07 10:00:30;;;;;;;8.95;4.07;;;34.50;50.40;;;;;;4879582;28;87333;-79
2022/09/07 10:03:13;;;;;;;5.38;3.42;;;35.00;49.10;;;;;;4880580;28;87124;-78
2022/09/07 10:05:41;;;;;;;5.28;3.15;;;35.20;48.80;;;;;;4872549;28;86833;-77
2022/09/07 10:08:22;;;;;;;6.07;3.80;;;38.80;45.70;;;;;;4874061;28;88831;-79
2022/09/07 10:11:08;;;;;;;7.45;4.03;;;40.40;41.30;;;;;;4872594;28;88568;-76
2022/09/07 10:13:34;;;;;;;8.18;4.47;;;41.00;41.50;;;;;;4883826;28;87190;-76
2022/09/07 10:16:05;;;;;;;7.57;4.47;;;41.10;41.40;;;;;;4881701;28;86228;-77
2022/09/07 10:18:52;;;;;;;4.75;4.30;;;39.00;43.10;;;;;;4875309;28;86428;-78
2022/09/07 10:21:27;;;;;;;4.38;1.92;;;39.10;42.90;;;;;;4886185;28;87683;-76
2022/09/07 10:23:58;;;;;;;4.07;3.42;;;36.00;44.70;;;;;;4884097;28;88446;-77
2022/09/07 10:26:30;;;;;;;6.45;3.47;;;32.30;52.60;;;;;;4884666;28;86643;-76
2022/09/07 10:29:15;;;;;;;5.55;3.15;;;30.30;55.80;;;;;;4875383;28;86310;-76
2022/09/07 10:31:59;;;;;;;4.78;2.95;;;28.90;59.00;;;;;;4875213;28;86486;-77
2022/09/07 10:34:42;;;;;;;4.80;2.58;;;28.00;62.30;;;;;;4877911;28;87464;-77
2022/09/07 10:37:21;;;;;;;4.90;1.60;;;27.00;62.50;;;;;;4874472;28;87263;-76
2022/09/07 10:40:11;;;;;;;4.28;2.00;;;26.50;66.60;;;;;;4869742;28;86345;-77
2022/09/07 10:42:45;;;;;;;3.90;1.95;;;25.80;67.30;;;;;;4878544;28;87231;-76
2022/09/07 10:45:23;;;;;;;3.50;1.60;;;25.30;70.60;;;;;;4878893;28;86392;-78
2022/09/07 10:48:01;;;;;;;3.47;1.50;;;25.90;70.00;;;;;;4878672;28;86751;-76
2022/09/07 10:50:54;;;;;;;2.42;0.68;;;25.80;68.40;;;;;;4880039;28;88936;-75
2022/09/07 10:53:23;;;;;;;5.15;1.55;;;26.00;69.90;;;;;;4871860;28;88674;-76
2022/09/07 10:56:11;;;;;;;3.08;0.80;;;26.40;69.20;;;;;;4883295;28;87177;-76
2022/09/07 10:59:05;;;;;;;4.38;1.25;;;26.50;69.40;;;;;;4877083;28;86474;-77
2022/09/07 11:01:40;;;;;;;2.95;1.17;;;26.60;68.80;;;;;;4884109;28;88064;-76
2022/09/07 11:04:43;;;;;;;6.00;1.88;;;26.80;68.40;;;;;;4876771;28;88208;-76
2022/09/07 11:07:33;;;;;;;2.15;0.88;;;27.10;66.50;;;;;;4887042;28;89579;-77
2022/09/07 11:10:24;;;;;;;5.05;1.80;;;26.90;65.30;;;;;;4885581;28;86786;-77
2022/09/07 11:12:52;;;;;;;4.63;1.70;;;26.70;66.30;;;;;;4878327;28;86428;-75
2022/09/07 11:15:31;;;;;;;4.90;1.70;;;26.40;65.70;;;;;;4880757;28;87310;-76
2022/09/07 11:18:04;;;;;;;3.60;1.30;;;26.00;66.00;;;;;;4899496;28;89059;-77
2022/09/07 11:20:41;;;;;;;4.78;1.25;;;25.70;68.40;;;;;;4880735;28;86270;-76
2022/09/07 11:23:24;;;;;;;2.50;1.10;;;26.00;68.40;;;;;;4874194;28;86475;-75
2022/09/07 11:26:13;;;;;;;2.83;1.63;;;26.30;64.70;;;;;;4880580;28;88749;-75
2022/09/07 11:29:19;;;;;;;2.88;1.20;;;26.30;65.80;;;;;;4876849;28;90043;-76
2022/09/07 11:31:50;;;;;;;2.25;1.30;;;26.40;66.30;;;;;;4868813;28;87765;-77
2022/09/07 11:34:36;;;;;;;2.88;1.27;;;26.60;68.20;;;;;;4878794;28;86689;-76
2022/09/07 11:37:18;;;;;;;3.03;1.02;;;26.50;63.50;;;;;;4873802;28;87780;-78
2022/09/07 11:40:09;;;;;;;3.83;1.13;;;26.30;62.70;;;;;;4872233;28;87110;-75
2022/09/07 11:42:48;;;;;;;3.88;0.90;;;26.60;63.80;;;;;;4857244;28;86935;-75
2022/09/07 11:45:34;;;;;;;4.95;1.00;;;26.40;61.70;;;;;;4877844;28;86306;-76
2022/09/07 11:48:08;;;;;;;3.65;1.02;;;26.30;61.40;;;;;;4876135;28;87863;-75
2022/09/07 11:50:38;;;;;;;4.00;1.17;;;26.40;64.10;;;;;;4877426;28;86129;-75
2022/09/07 11:53:15;;;;;;;4.43;1.20;;;26.50;63.50;;;;;;4876434;28;86191;-76
2022/09/07 11:55:49;;;;;;;3.38;1.08;;;27.10;62.90;;;;;;4875022;28;86955;-77
2022/09/07 11:58:34;;;;;;;2.33;1.50;;;27.50;61.90;;;;;;4877131;28;88043;-76
2022/09/07 12:01:37;;;;;;;3.45;1.50;;;27.80;62.00;;;;;;4875266;28;89191;-75
2022/09/07 12:04:26;;;;;;;3.92;1.00;;;27.70;63.40;;;;;;4875043;28;86340;-76
2022/09/07 12:07:05;;;;;;;2.88;1.67;;;27.30;60.00;;;;;;4875918;28;86485;-77
2022/09/07 12:09:42;;;;;;;4.13;1.58;;;26.90;62.20;;;;;;4874108;28;86698;-78
2022/09/07 12:12:33;;;;;;;3.55;1.20;;;26.90;61.80;;;;;;4880894;28;86677;-79
2022/09/07 12:15:29;;;;;;;3.47;1.73;;;26.80;63.30;;;;;;4874280;28;86362;-78
2022/09/07 12:18:24;;;;;;;4.65;1.58;;;26.80;63.40;;;;;;4876477;28;86270;-77
2022/09/07 12:20:49;;;;;;;;;;;26.40;62.00;;;;;;4823996;28;87574;-76
2022/09/07 12:23:15;;;;;;;3.97;1.20;;;26.20;65.00;;;;;;4877325;28;87917;-75
2022/09/07 12:25:45;;;;;;;2.85;1.13;;;26.70;62.90;;;;;;4877409;28;87766;-75
2022/09/07 12:28:35;;;;;;;3.47;1.08;;;27.00;64.50;;;;;;4875915;28;86752;-74
2022/09/07 12:31:09;;;;;;;5.55;1.40;;;26.80;66.00;;;;;;4876104;28;87327;-74
2022/09/07 12:33:39;;;;;;;7.22;1.55;;;26.60;64.50;;;;;;4876310;28;87138;-76
2022/09/07 12:36:27;;;;;;;4.13;1.00;;;26.70;65.40;;;;;;4877668;28;86949;-76
2022/09/07 12:39:07;;;;;;;4.63;1.38;;;26.70;66.70;;;;;;4875660;28;87053;-79
2022/09/07 12:41:41;;;;;;;3.90;1.27;;;26.60;66.90;;;;;;4876775;28;89487;-76
2022/09/07 12:44:15;;;;;;;3.55;1.25;;;26.60;67.00;;;;;;4874848;28;86863;-78
2022/09/07 12:46:44;;;;;;;6.22;1.75;;;26.50;67.90;;;;;;4875836;28;86437;-78
2022/09/07 12:49:34;;;;;;;11.13;1.00;;;26.50;65.90;;;;;;4876873;28;86772;-79
2022/09/07 12:52:23;;;;;;;3.33;1.20;;;26.70;66.20;;;;;;4875143;28;87884;-79
2022/09/07 12:55:08;;;;;;;5.57;1.13;;;26.90;63.80;;;;;;4862863;28;87659;-79
2022/09/07 12:57:37;;;;;;;4.10;1.35;;;26.90;62.70;;;;;;4875501;28;86371;-77
2022/09/07 13:00:10;;;;;;;3.75;1.02;;;26.90;64.70;;;;;;4876348;28;86427;-81
2022/09/07 13:03:15;;;;;;;5.18;1.20;;;26.90;63.80;;;;;;4875347;28;89101;-76
2022/09/07 13:06:10;;;;;;;6.32;1.33;;;27.10;64.40;;;;;;4865691;28;88619;-77
2022/09/07 13:08:42;;;;;;;3.15;0.70;;;27.20;66.30;;;;;;4865602;28;87263;-75
2022/09/07 13:11:20;;;;;;;8.18;1.58;;;27.40;65.00;;;;;;4882802;28;85900;-75
2022/09/07 13:14:00;;;;;;;5.65;1.83;;;27.20;65.00;;;;;;4872738;28;87322;-75
2022/09/07 13:16:27;;;;;;;3.55;1.40;;;27.20;64.00;;;;;;4873488;28;86794;-76
2022/09/07 13:18:53;;;;;;;3.97;0.73;;;27.40;65.40;;;;;;4880406;28;87213;-76
2022/09/07 13:21:32;;;;;;;8.07;1.02;;;27.20;64.40;;;;;;4880192;28;86520;-76
2022/09/07 13:24:17;;;;;;;5.60;1.50;;;27.20;64.80;;;;;;4881064;28;87403;-76
2022/09/07 13:27:04;;;;;;;3.95;1.42;;;27.10;64.80;;;;;;4880431;28;88479;-75
2022/09/07 13:29:46;;;;;;;5.45;1.17;;;27.30;63.30;;;;;;4879939;28;86862;-76
2022/09/07 13:32:26;;;;;;;4.88;1.33;;;27.10;65.70;;;;;;4880263;28;86778;-75
2022/09/07 13:35:02;;;;;;;3.78;1.20;;;26.80;66.50;;;;;;4879389;28;87407;-76
2022/09/07 13:37:32;;;;;;;5.13;1.15;;;26.90;65.80;;;;;;4879610;28;88838;-75
2022/09/07 13:39:59;;;;;;;6.57;1.55;;;27.10;64.20;;;;;;4883837;28;86704;-75
2022/09/07 13:42:34;;;;;;;4.00;1.58;;;27.00;64.40;;;;;;4879482;28;86519;-76
2022/09/07 13:45:03;;;;;;;5.25;1.40;;;26.80;64.90;;;;;;4873621;28;88202;-75
2022/09/07 13:47:36;;;;;;;6.00;0.80;;;26.70;67.10;;;;;;4869730;28;87174;-75
2022/09/07 13:50:39;;;;;;;6.72;1.30;;;26.60;66.40;;;;;;4877914;28;86440;-76
2022/09/07 13:53:38;;;;;;;5.55;1.10;;;26.40;66.70;;;;;;4880830;28;86943;-75
2022/09/07 13:56:42;;;;;;;6.13;1.55;;;26.40;68.20;;;;;;4870353;28;87295;-76
2022/09/07 13:59:21;;;;;;;8.32;1.38;;;26.60;66.00;;;;;;4876830;28;87144;-76
2022/09/07 14:01:49;;;;;;;7.82;0.90;;;26.40;67.90;;;;;;4877138;28;88749;-76
2022/09/07 14:04:28;;;;;;;3.60;1.25;;;26.20;68.80;;;;;;4872596;28;85636;-76
2022/09/07 14:07:15;;;;;;;5.55;1.23;;;26.20;67.80;;;;;;4874252;28;86649;-75
2022/09/07 14:09:41;;;;;;;6.22;1.40;;;26.00;68.10;;;;;;4876633;28;86921;-76
2022/09/07 14:12:19;;;;;;;3.85;0.80;;;26.00;69.10;;;;;;4878604;28;88102;-75
2022/09/07 14:14:45;;;;;;;4.22;1.20;;;25.90;68.90;;;;;;4880240;28;87290;-76
2022/09/07 14:17:18;;;;;;;4.75;1.52;;;25.90;68.50;;;;;;4877331;28;86770;-75
2022/09/07 14:19:50;;;;;;;7.28;1.52;;;26.00;69.30;;;;;;4881968;28;89738;-75
2022/09/07 14:22:22;;;;;;;3.65;0.70;;;25.90;69.30;;;;;;4873009;28;86822;-76
2022/09/07 14:24:49;;;;;;;5.75;0.60;;;26.10;67.40;;;;;;4878920;28;86767;-75
2022/09/07 14:27:21;;;;;;;7.22;1.58;;;26.10;67.70;;;;;;4872812;28;86843;-76
2022/09/07 14:29:47;;;;;;;4.88;0.82;;;26.10;67.40;;;;;;4876993;28;86971;-76
2022/09/07 14:32:21;;;;;;;6.05;1.13;;;26.10;67.40;;;;;;4875967;28;87873;-76
2022/09/07 14:34:48;;;;;;;3.75;0.90;;;25.90;68.30;;;;;;4880659;28;86471;-76
2022/09/07 14:37:16;;;;;;;4.13;1.25;;;26.00;68.80;;;;;;4874317;28;87608;-76
2022/09/07 14:39:46;;;;;;;3.92;1.55;;;26.00;68.30;;;;;;4882013;28;87165;-76
2022/09/07 14:42:20;;;;;;;8.93;0.95;;;26.10;68.70;;;;;;4883261;28;86776;-75
2022/09/07 14:44:46;;;;;;;6.43;1.52;;;26.20;67.70;;;;;;4884471;28;86747;-75
2022/09/07 14:47:26;;;;;;;7.05;1.25;;;26.20;68.60;;;;;;4879999;28;86286;-76
2022/09/07 14:50:04;;;;;;;8.13;1.65;;;26.00;69.30;;;;;;4878104;28;87131;-76
2022/09/07 14:52:36;;;;;;;3.95;1.38;;;26.10;70.00;;;;;;4882930;28;86982;-75
2022/09/07 14:55:18;;;;;;;3.97;1.50;;;26.10;69.40;;;;;;4884582;28;86169;-75
2022/09/07 14:57:44;;;;;;;4.72;1.45;;;26.10;69.30;;;;;;4883206;28;87187;-75
2022/09/07 15:00:46;;;;;;;7.50;1.40;;;26.10;69.70;;;;;;4878948;28;87190;-76
2022/09/07 15:03:32;;;;;;;6.90;1.63;;;26.10;67.90;;;;;;4867938;28;87812;-75
2022/09/07 15:06:02;;;;;;;4.22;1.52;;;26.00;69.10;;;;;;4878051;28;88483;-76
2022/09/07 15:08:47;;;;;;;7.03;1.70;;;26.00;68.80;;;;;;4870655;28;87024;-76
2022/09/07 15:11:28;;;;;;;6.07;2.53;;;26.10;68.30;;;;;;4879912;28;88169;-78
2022/09/07 15:13:57;;;;;;;7.07;1.63;;;26.00;68.10;;;;;;4876401;28;86821;-79
2022/09/07 15:16:23;;;;;;;7.32;1.45;;;25.90;68.70;;;;;;4879503;28;87098;-80
2022/09/07 15:18:55;;;;;;;6.43;1.55;;;26.00;69.10;;;;;;4875384;28;87255;-78
2022/09/07 15:21:39;;;;;;;5.78;1.92;;;25.90;68.70;;;;;;4879339;28;86104;-77
2022/09/07 15:24:05;;;;;;;5.30;0.98;;;26.10;68.00;;;;;;4883539;28;86457;-82
2022/09/07 15:26:43;;;;;;;5.82;1.30;;;26.10;68.00;;;;;;4875811;28;87062;-77
2022/09/07 15:29:10;;;;;;;5.10;1.48;;;26.10;68.10;;;;;;4874507;28;88382;-77
2022/09/07 15:31:37;;;;;;;4.30;1.50;;;26.00;68.20;;;;;;4875411;28;87094;-78
2022/09/07 15:34:10;;;;;;;6.10;1.73;;;25.90;69.00;;;;;;4877271;28;86606;-80
2022/09/07 15:36:41;;;;;;;5.03;1.38;;;25.80;69.70;;;;;;4886200;28;86679;-80
2022/09/07 15:39:18;;;;;;;4.70;1.50;;;25.90;69.40;;;;;;4871681;28;88876;-79
2022/09/07 15:41:44;;;;;;;5.75;1.50;;;25.90;69.50;;;;;;4878085;28;87029;-80
2022/09/07 15:44:10;;;;;;;5.00;1.40;;;26.00;69.10;;;;;;4876230;28;86818;-77
2022/09/07 15:46:36;;;;;;;6.22;1.48;;;26.10;69.00;;;;;;4883644;28;85854;-80
2022/09/07 15:49:02;;;;;;;4.43;1.52;;;26.20;68.70;;;;;;4876629;28;86950;-79
2022/09/07 15:51:28;;;;;;;6.13;0.80;;;26.20;69.00;;;;;;4880633;28;88477;-78
2022/09/07 15:53:54;;;;;;;6.88;1.33;;;26.20;69.20;;;;;;4873203;28;88029;-81
2022/09/07 15:56:20;;;;;;;8.75;1.45;;;26.30;68.80;;;;;;4880860;28;87426;-79
2022/09/07 15:58:50;;;;;;;7.97;1.77;;;26.10;68.50;;;;;;4872243;28;87217;-78
2022/09/07 16:01:15;;;;;;;6.80;1.58;;;25.90;69.30;;;;;;4877352;28;86987;-79
2022/09/07 16:03:41;;;;;;;5.07;1.42;;;26.00;68.60;;;;;;4872069;28;86366;-78
2022/09/07 16:06:11;;;;;;;6.43;1.35;;;26.10;68.30;;;;;;4877170;28;88754;-78